createdAt,value
2019-05-10T00:04:47.565Z,99902.91
2019-05-10T00:11:09.069Z,99906.05
2019-05-10T00:17:22.115Z,99909.28
2019-05-10T00:23:27.887Z,99911.09
2019-05-10T00:29:33.671Z,99911.16
2019-05-10T00:35:39.418Z,99903.66
2019-05-10T00:41:45.334Z,99912.36
2019-05-10T00:47:51.334Z,99901.45
2019-05-10T00:53:57.049Z,99909.95
2019-05-10T01:00:02.800Z,99905.64
2019-05-10T01:06:08.628Z,99905.75
2019-05-10T01:12:14.313Z,99911.03
2019-05-10T01:18:20.136Z,99908.51
2019-05-10T01:24:25.860Z,99911.14
2019-05-10T01:30:31.572Z,99915.99
2019-05-10T01:36:39.549Z,99917.45
2019-05-10T01:42:45.310Z,99925.37
2019-05-10T01:48:51.621Z,99929.81
2019-05-10T01:54:57.939Z,99933.83
2019-05-10T02:01:04.250Z,99934.77
2019-05-10T02:07:09.970Z,99931.72
2019-05-10T02:13:15.682Z,99939.70
2019-05-10T02:19:22.751Z,99936.59
2019-05-10T02:25:28.473Z,99945.81
2019-05-10T02:31:34.219Z,99950.17
2019-05-10T02:37:39.956Z,99942.20
2019-05-10T02:43:46.016Z,99944.77
2019-05-10T02:49:51.770Z,99946.59
2019-05-10T02:55:58.870Z,99954.41
2019-05-10T03:02:07.599Z,99962.41
2019-05-10T03:08:16.415Z,99964.13
2019-05-10T03:14:24.062Z,99970.35
2019-05-10T03:20:31.397Z,99967.44
2019-05-10T03:26:50.263Z,99983.46
2019-05-10T03:32:49.469Z,99991.02
2019-05-10T03:38:55.558Z,100000.31
2019-05-10T03:45:01.284Z,100009.66
2019-05-10T03:51:07.323Z,100014.96
2019-05-10T03:57:14.664Z,100011.96
2019-05-10T04:03:21.088Z,100022.02
2019-05-10T04:09:27.038Z,100030.98
2019-05-10T04:15:32.895Z,100034.55
2019-05-10T04:21:38.631Z,100047.39
2019-05-10T04:27:44.355Z,100052.73
2019-05-10T04:33:50.203Z,100059.80
2019-05-10T04:39:56.086Z,100063.72
2019-05-10T04:46:01.894Z,100079.48
2019-05-10T04:52:08.146Z,100086.94
2019-05-10T04:58:13.876Z,100091.83
2019-05-10T05:04:19.753Z,100099.66
2019-05-10T05:10:25.524Z,100106.55
2019-05-10T05:16:31.260Z,100120.66
2019-05-10T05:22:37.083Z,100116.54
2019-05-10T05:28:42.944Z,100130.56
2019-05-10T05:34:48.700Z,100142.28
2019-05-10T05:40:54.831Z,100150.55
2019-05-10T05:47:04.421Z,100156.79
2019-05-10T05:53:08.378Z,100164.23
2019-05-10T05:59:17.346Z,100167.56
2019-05-10T06:05:34.072Z,100165.67
2019-05-10T06:11:35.137Z,100174.19
2019-05-10T06:17:37.131Z,100178.64
2019-05-10T06:23:43.700Z,100184.94
2019-05-10T06:29:49.725Z,100198.77
2019-05-10T06:35:55.482Z,100207.23
2019-05-10T06:42:02.277Z,100206.19
2019-05-10T06:48:08.132Z,100214.90
2019-05-10T06:54:14.082Z,100230.95
2019-05-10T07:00:20.197Z,100229.88
2019-05-10T07:06:25.984Z,100237.73
2019-05-10T07:12:31.743Z,100250.94
2019-05-10T07:18:37.681Z,100257.98
2019-05-10T07:24:43.487Z,100280.20
2019-05-10T07:30:49.224Z,100279.88
2019-05-10T07:36:55.558Z,100287.61
2019-05-10T07:43:01.350Z,100301.39
2019-05-10T07:49:07.252Z,100312.57
2019-05-10T07:55:18.554Z,100317.33
2019-05-10T08:01:29.114Z,100319.86
2019-05-10T08:07:29.384Z,100331.28
2019-05-10T08:13:35.571Z,100332.73
2019-05-10T08:19:42.146Z,100341.10
2019-05-10T08:25:47.869Z,100336.89
2019-05-10T08:31:56.006Z,100338.68
2019-05-10T08:38:04.551Z,100345.66
2019-05-10T08:44:19.121Z,100349.31
2019-05-10T08:50:42.216Z,100363.05
2019-05-10T08:56:25.360Z,100371.78
2019-05-10T09:02:32.873Z,100383.89
2019-05-10T09:08:38.797Z,100382.75
2019-05-10T09:14:48.827Z,100394.48
2019-05-10T09:21:00.494Z,100400.41
2019-05-10T09:27:02.658Z,100419.28
2019-05-10T09:33:10.319Z,100423.02
2019-05-10T09:39:21.331Z,100438.92
2019-05-10T09:45:24.361Z,100439.81
2019-05-10T09:51:33.093Z,100452.11
2019-05-10T09:57:38.223Z,100459.66
2019-05-10T10:03:44.980Z,100462.21
2019-05-10T10:09:50.863Z,100459.59
2019-05-10T10:15:58.121Z,100465.69
2019-05-10T10:22:05.743Z,100461.31
2019-05-10T10:28:16.977Z,100465.64
2019-05-10T10:34:19.016Z,100466.43
2019-05-10T10:40:24.852Z,100468.05
2019-05-10T10:46:33.956Z,100475.61
2019-05-10T10:52:38.202Z,100479.81
2019-05-10T10:58:44.000Z,100486.88
2019-05-10T11:04:49.912Z,100484.69
2019-05-10T11:10:55.649Z,100485.70
2019-05-10T11:17:01.360Z,100485.86
2019-05-10T11:23:07.198Z,100488.84
2019-05-10T11:29:13.929Z,100486.16
2019-05-10T11:35:28.523Z,100493.81
2019-05-10T11:41:28.314Z,100508.28
2019-05-10T11:47:34.113Z,100510.66
2019-05-10T11:53:41.471Z,100523.23
2019-05-10T11:59:47.575Z,100531.22
2019-05-10T12:06:04.361Z,100533.28
2019-05-10T12:12:03.380Z,100542.09
2019-05-10T12:18:14.712Z,100540.96
2019-05-10T12:26:29.497Z,100537.70
2019-05-10T12:30:29.594Z,100548.53
2019-05-10T12:36:33.437Z,100548.30
2019-05-10T12:42:41.581Z,100556.05
2019-05-10T12:48:46.929Z,100547.80
2019-05-10T12:54:53.303Z,100544.59
2019-05-10T13:00:59.286Z,100558.29
2019-05-10T13:07:05.094Z,100554.81
2019-05-10T13:13:11.110Z,100550.94
2019-05-10T13:19:20.122Z,100549.45
2019-05-10T13:25:25.066Z,100544.53
2019-05-10T13:31:30.901Z,100538.81
2019-05-10T13:37:36.736Z,100535.87
2019-05-10T13:43:42.669Z,100537.73
2019-05-10T13:49:49.314Z,100538.62
2019-05-10T13:55:55.241Z,100529.55
2019-05-10T14:02:01.197Z,100534.73
2019-05-10T14:08:07.059Z,100552.01
2019-05-10T14:14:14.518Z,100545.33
2019-05-10T14:20:25.047Z,100556.89
2019-05-10T14:26:28.220Z,100597.19
2019-05-10T14:32:34.108Z,100616.33
2019-05-10T14:38:39.910Z,100601.62
2019-05-10T14:44:45.631Z,100597.13
2019-05-10T14:50:51.477Z,100600.16
2019-05-10T14:56:57.242Z,100600.97
2019-05-10T15:03:03.805Z,100604.41
2019-05-10T15:09:20.237Z,100597.53
2019-05-10T15:15:18.305Z,100592.48
2019-05-10T15:21:24.099Z,100585.11
2019-05-10T15:27:29.917Z,100574.48
2019-05-10T15:33:35.784Z,100582.63
2019-05-10T15:39:41.914Z,100577.81
2019-05-10T15:45:52.455Z,100577.78
2019-05-10T15:52:15.185Z,100592.14
2019-05-10T15:58:03.705Z,100593.25
2019-05-10T16:04:09.417Z,100589.83
2019-05-10T16:10:15.679Z,100590.56
2019-05-10T16:16:21.645Z,100594.70
2019-05-10T16:22:30.382Z,100619.81
2019-05-10T16:28:35.134Z,100657.59
2019-05-10T16:34:40.879Z,100676.92
2019-05-10T16:40:57.258Z,100673.75
2019-05-10T16:46:54.140Z,100682.88
2019-05-10T16:53:05.757Z,100668.74
2019-05-10T16:59:07.806Z,100656.56
2019-05-10T17:05:15.632Z,100639.72
2019-05-10T17:11:21.149Z,100619.00
2019-05-10T17:17:31.117Z,100614.34
2019-05-10T17:23:34.455Z,100599.46
2019-05-10T17:29:44.606Z,100600.48
2019-05-10T17:35:47.727Z,100589.51
2019-05-10T17:41:57.595Z,100591.70
2019-05-10T17:48:08.066Z,100587.27
2019-05-10T17:54:09.916Z,100583.08
2019-05-10T18:00:17.405Z,100593.91
2019-05-10T18:06:24.485Z,100604.60
2019-05-10T18:12:30.510Z,100609.13
2019-05-10T18:18:46.148Z,100608.53
2019-05-10T18:24:44.425Z,100612.73
2019-05-10T18:30:50.402Z,100613.24
2019-05-10T18:36:56.285Z,100630.13
2019-05-10T18:43:04.670Z,100635.09
2019-05-10T18:49:10.009Z,100645.53
2019-05-10T18:55:15.968Z,100637.02
2019-05-10T19:01:21.897Z,100636.87
2019-05-10T19:07:27.625Z,100637.90
2019-05-10T19:13:40.156Z,100633.59
2019-05-10T19:19:42.286Z,100623.09
2019-05-10T19:25:51.693Z,100618.22
2019-05-10T19:31:57.640Z,100631.75
2019-05-10T19:38:03.685Z,100633.55
2019-05-10T19:44:09.550Z,100646.84
2019-05-10T19:50:16.050Z,100657.41
2019-05-10T19:56:24.105Z,100662.33
2019-05-10T20:02:30.007Z,100667.73
2019-05-10T20:08:35.779Z,100674.45
2019-05-10T20:14:41.810Z,100681.54
2019-05-10T20:20:47.808Z,100679.28
2019-05-10T20:26:53.527Z,100673.70
2019-05-10T20:32:59.437Z,100664.66
2019-05-10T20:39:07.384Z,100664.33
2019-05-10T20:45:14.216Z,100673.48
2019-05-10T20:51:20.672Z,100669.06
2019-05-10T20:57:26.727Z,100663.78
2019-05-10T21:03:32.629Z,100647.14
2019-05-10T21:09:39.205Z,100657.61
2019-05-10T21:15:45.031Z,100643.16
2019-05-10T21:21:50.827Z,100645.72
2019-05-10T21:27:56.600Z,100645.20
2019-05-10T21:34:09.621Z,100650.47
2019-05-10T21:40:10.943Z,100641.20
2019-05-10T21:46:16.720Z,100625.98
2019-05-10T21:52:22.731Z,100614.30
2019-05-10T21:58:32.719Z,100605.11
2019-05-10T22:04:38.441Z,100616.09
2019-05-10T22:10:44.249Z,100609.45
2019-05-10T22:16:50.120Z,100613.75
2019-05-10T22:22:56.191Z,100614.13
2019-05-10T22:29:02.097Z,100606.29
2019-05-10T22:35:08.281Z,100585.86
2019-05-10T22:41:14.370Z,100602.63
2019-05-10T22:47:20.540Z,100597.77
2019-05-10T22:53:26.349Z,100603.01
2019-05-10T22:59:32.317Z,100597.30
2019-05-10T23:05:38.201Z,100573.66
2019-05-10T23:11:44.065Z,100567.55
2019-05-10T23:17:49.763Z,100558.75
2019-05-10T23:23:55.776Z,100559.17
2019-05-10T23:30:01.637Z,100547.25
2019-05-10T23:36:08.231Z,100554.22
2019-05-10T23:42:13.984Z,100547.60
2019-05-10T23:48:20.505Z,100554.16
2019-05-10T23:54:26.478Z,100536.61
